sensor_id;sensor_type;location;lat;lon;timestamp;temperature;humidity
40756;DHT22;26461;45.630;9.418;2023-04-09T00:00:22;11.70;92.80
40756;DHT22;26461;45.630;9.418;2023-04-09T00:03:45;11.70;92.80
40756;DHT22;26461;45.630;9.418;2023-04-09T00:06:56;11.70;92.80
40756;DHT22;26461;45.630;9.418;2023-04-09T00:10:07;11.70;92.80
40756;DHT22;26461;45.630;9.418;2023-04-09T00:13:19;11.70;92.80
40756;DHT22;26461;45.630;9.418;2023-04-09T00:16:25;11.70;92.80
40756;DHT22;26461;45.630;9.418;2023-04-09T00:19:30;11.70;92.80
40756;DHT22;26461;45.630;9.418;2023-04-09T00:22:37;11.70;92.80
40756;DHT22;26461;45.630;9.418;2023-04-09T00:25:43;11.80;92.80
40756;DHT22;26461;45.630;9.418;2023-04-09T00:28:48;11.80;92.70
40756;DHT22;26461;45.630;9.418;2023-04-09T00:31:55;11.80;92.80
40756;DHT22;26461;45.630;9.418;2023-04-09T00:35:01;11.80;92.80
40756;DHT22;26461;45.630;9.418;2023-04-09T00:38:12;11.80;92.80
40756;DHT22;26461;45.630;9.418;2023-04-09T00:41:18;11.80;92.80
40756;DHT22;26461;45.630;9.418;2023-04-09T00:44:24;11.80;92.70
40756;DHT22;26461;45.630;9.418;2023-04-09T00:47:30;11.80;92.70
40756;DHT22;26461;45.630;9.418;2023-04-09T00:50:41;11.80;92.60
40756;DHT22;26461;45.630;9.418;2023-04-09T00:53:50;11.80;92.60
40756;DHT22;26461;45.630;9.418;2023-04-09T00:57:00;11.80;92.60
40756;DHT22;26461;45.630;9.418;2023-04-09T01:00:07;11.80;92.50
40756;DHT22;26461;45.630;9.418;2023-04-09T01:03:13;11.80;92.60
40756;DHT22;26461;45.630;9.418;2023-04-09T01:06:31;11.80;92.60
40756;DHT22;26461;45.630;9.418;2023-04-09T01:09:49;11.70;92.60
40756;DHT22;26461;45.630;9.418;2023-04-09T01:13:11;11.70;92.60
40756;DHT22;26461;45.630;9.418;2023-04-09T01:16:18;11.70;92.70
40756;DHT22;26461;45.630;9.418;2023-04-09T01:19:45;11.70;92.70
40756;DHT22;26461;45.630;9.418;2023-04-09T01:23:32;11.70;92.70
40756;DHT22;26461;45.630;9.418;2023-04-09T01:30:06;11.60;92.80
40756;DHT22;26461;45.630;9.418;2023-04-09T01:33:17;11.50;92.80
40756;DHT22;26461;45.630;9.418;2023-04-09T01:36:24;11.50;92.90
40756;DHT22;26461;45.630;9.418;2023-04-09T01:39:31;11.50;92.90
40756;DHT22;26461;45.630;9.418;2023-04-09T01:42:37;11.50;92.90
40756;DHT22;26461;45.630;9.418;2023-04-09T01:45:48;11.50;92.90
40756;DHT22;26461;45.630;9.418;2023-04-09T01:48:55;11.50;92.90
40756;DHT22;26461;45.630;9.418;2023-04-09T01:52:06;11.50;92.90
40756;DHT22;26461;45.630;9.418;2023-04-09T01:55:14;11.50;92.90
40756;DHT22;26461;45.630;9.418;2023-04-09T01:58:20;11.40;92.80
40756;DHT22;26461;45.630;9.418;2023-04-09T02:01:59;11.40;92.80
40756;DHT22;26461;45.630;9.418;2023-04-09T02:05:07;11.40;92.80
40756;DHT22;26461;45.630;9.418;2023-04-09T02:08:20;11.40;92.80
40756;DHT22;26461;45.630;9.418;2023-04-09T02:11:28;11.40;92.80
40756;DHT22;26461;45.630;9.418;2023-04-09T02:14:34;11.40;92.80
40756;DHT22;26461;45.630;9.418;2023-04-09T02:17:48;11.30;92.80
40756;DHT22;26461;45.630;9.418;2023-04-09T02:20:55;11.40;92.80
40756;DHT22;26461;45.630;9.418;2023-04-09T02:24:01;11.40;92.80
40756;DHT22;26461;45.630;9.418;2023-04-09T02:27:09;11.30;92.80
40756;DHT22;26461;45.630;9.418;2023-04-09T02:30:15;11.30;92.80
40756;DHT22;26461;45.630;9.418;2023-04-09T02:33:21;11.30;92.60
40756;DHT22;26461;45.630;9.418;2023-04-09T02:36:29;11.30;92.50
40756;DHT22;26461;45.630;9.418;2023-04-09T02:39:40;11.20;92.60
40756;DHT22;26461;45.630;9.418;2023-04-09T02:42:47;11.20;92.70
40756;DHT22;26461;45.630;9.418;2023-04-09T02:45:58;11.10;92.80
40756;DHT22;26461;45.630;9.418;2023-04-09T02:49:08;11.10;92.90
40756;DHT22;26461;45.630;9.418;2023-04-09T02:52:14;11.10;93.00
40756;DHT22;26461;45.630;9.418;2023-04-09T02:55:25;11.10;93.10
40756;DHT22;26461;45.630;9.418;2023-04-09T02:58:38;11.00;93.20
40756;DHT22;26461;45.630;9.418;2023-04-09T03:01:48;11.00;93.10
40756;DHT22;26461;45.630;9.418;2023-04-09T03:04:54;11.00;93.00
40756;DHT22;26461;45.630;9.418;2023-04-09T03:08:00;11.00;93.00
40756;DHT22;26461;45.630;9.418;2023-04-09T03:11:08;10.90;93.10
40756;DHT22;26461;45.630;9.418;2023-04-09T03:14:25;10.90;93.20
40756;DHT22;26461;45.630;9.418;2023-04-09T03:17:36;10.80;93.20
40756;DHT22;26461;45.630;9.418;2023-04-09T03:20:44;10.80;93.00
40756;DHT22;26461;45.630;9.418;2023-04-09T03:23:55;10.70;93.00
40756;DHT22;26461;45.630;9.418;2023-04-09T03:27:00;10.60;93.10
40756;DHT22;26461;45.630;9.418;2023-04-09T03:30:14;10.50;93.20
40756;DHT22;26461;45.630;9.418;2023-04-09T03:33:26;10.40;93.40
40756;DHT22;26461;45.630;9.418;2023-04-09T03:36:34;10.40;93.50
40756;DHT22;26461;45.630;9.418;2023-04-09T03:39:51;10.30;93.60
40756;DHT22;26461;45.630;9.418;2023-04-09T03:43:14;10.30;93.80
40756;DHT22;26461;45.630;9.418;2023-04-09T03:46:27;10.30;93.80
40756;DHT22;26461;45.630;9.418;2023-04-09T03:49:37;10.40;93.90
40756;DHT22;26461;45.630;9.418;2023-04-09T03:52:59;10.30;93.90
40756;DHT22;26461;45.630;9.418;2023-04-09T03:56:06;10.40;94.00
40756;DHT22;26461;45.630;9.418;2023-04-09T03:59:13;10.40;94.10
40756;DHT22;26461;45.630;9.418;2023-04-09T04:02:22;10.40;94.10
40756;DHT22;26461;45.630;9.418;2023-04-09T04:05:36;10.40;94.10
40756;DHT22;26461;45.630;9.418;2023-04-09T04:08:45;10.30;94.10
40756;DHT22;26461;45.630;9.418;2023-04-09T04:11:52;10.40;94.10
40756;DHT22;26461;45.630;9.418;2023-04-09T04:15:04;10.30;94.10
40756;DHT22;26461;45.630;9.418;2023-04-09T04:18:18;10.30;94.10
40756;DHT22;26461;45.630;9.418;2023-04-09T04:21:28;10.30;94.20
40756;DHT22;26461;45.630;9.418;2023-04-09T04:24:37;10.30;94.20
40756;DHT22;26461;45.630;9.418;2023-04-09T04:27:44;10.30;94.20
40756;DHT22;26461;45.630;9.418;2023-04-09T04:30:52;10.30;94.20
40756;DHT22;26461;45.630;9.418;2023-04-09T04:34:04;10.40;94.20
40756;DHT22;26461;45.630;9.418;2023-04-09T04:37:16;10.40;94.10
40756;DHT22;26461;45.630;9.418;2023-04-09T04:40:36;10.40;94.00
40756;DHT22;26461;45.630;9.418;2023-04-09T04:43:46;10.40;93.90
40756;DHT22;26461;45.630;9.418;2023-04-09T04:46:57;10.30;93.90
40756;DHT22;26461;45.630;9.418;2023-04-09T04:50:04;10.30;93.90
40756;DHT22;26461;45.630;9.418;2023-04-09T04:53:18;10.30;94.00
40756;DHT22;26461;45.630;9.418;2023-04-09T04:56:28;10.30;94.00
40756;DHT22;26461;45.630;9.418;2023-04-09T04:59:45;10.20;94.00
40756;DHT22;26461;45.630;9.418;2023-04-09T05:02:59;10.20;94.10
40756;DHT22;26461;45.630;9.418;2023-04-09T05:06:25;10.20;94.10
40756;DHT22;26461;45.630;9.418;2023-04-09T05:09:33;10.10;94.20
40756;DHT22;26461;45.630;9.418;2023-04-09T05:12:48;10.10;94.20
40756;DHT22;26461;45.630;9.418;2023-04-09T05:16:07;10.10;94.20
40756;DHT22;26461;45.630;9.418;2023-04-09T05:19:17;10.00;94.20
40756;DHT22;26461;45.630;9.418;2023-04-09T05:22:23;10.00;94.10
40756;DHT22;26461;45.630;9.418;2023-04-09T05:25:29;10.00;94.30
40756;DHT22;26461;45.630;9.418;2023-04-09T05:28:43;9.90;94.40
40756;DHT22;26461;45.630;9.418;2023-04-09T05:32:03;9.90;94.60
40756;DHT22;26461;45.630;9.418;2023-04-09T05:35:17;9.90;94.70
40756;DHT22;26461;45.630;9.418;2023-04-09T05:38:27;9.90;94.80
40756;DHT22;26461;45.630;9.418;2023-04-09T05:41:36;9.90;94.90
40756;DHT22;26461;45.630;9.418;2023-04-09T05:45:14;9.90;95.20
40756;DHT22;26461;45.630;9.418;2023-04-09T05:48:26;10.00;95.50
40756;DHT22;26461;45.630;9.418;2023-04-09T05:51:33;10.10;95.40
40756;DHT22;26461;45.630;9.418;2023-04-09T05:54:39;10.10;95.20
40756;DHT22;26461;45.630;9.418;2023-04-09T05:57:57;10.20;95.10
40756;DHT22;26461;45.630;9.418;2023-04-09T06:01:08;10.20;95.00
40756;DHT22;26461;45.630;9.418;2023-04-09T06:04:14;10.20;95.30
40756;DHT22;26461;45.630;9.418;2023-04-09T06:07:23;10.30;95.00
40756;DHT22;26461;45.630;9.418;2023-04-09T06:10:33;10.30;95.00
40756;DHT22;26461;45.630;9.418;2023-04-09T06:13:39;10.40;95.00
40756;DHT22;26461;45.630;9.418;2023-04-09T06:16:46;10.40;94.90
40756;DHT22;26461;45.630;9.418;2023-04-09T06:19:51;10.50;95.10
40756;DHT22;26461;45.630;9.418;2023-04-09T06:23:00;10.60;95.20
40756;DHT22;26461;45.630;9.418;2023-04-09T06:26:09;10.70;95.20
40756;DHT22;26461;45.630;9.418;2023-04-09T06:29:16;10.70;95.10
40756;DHT22;26461;45.630;9.418;2023-04-09T06:32:24;10.80;95.40
40756;DHT22;26461;45.630;9.418;2023-04-09T06:35:29;10.80;95.40
40756;DHT22;26461;45.630;9.418;2023-04-09T06:38:37;10.90;95.70
40756;DHT22;26461;45.630;9.418;2023-04-09T06:41:48;10.90;95.90
40756;DHT22;26461;45.630;9.418;2023-04-09T06:45:13;11.00;95.90
40756;DHT22;26461;45.630;9.418;2023-04-09T06:48:18;11.10;95.80
40756;DHT22;26461;45.630;9.418;2023-04-09T06:51:23;11.10;95.70
40756;DHT22;26461;45.630;9.418;2023-04-09T06:54:29;11.20;96.10
40756;DHT22;26461;45.630;9.418;2023-04-09T06:57:37;11.30;96.00
40756;DHT22;26461;45.630;9.418;2023-04-09T07:00:43;11.30;95.60
40756;DHT22;26461;45.630;9.418;2023-04-09T07:03:57;11.40;95.30
40756;DHT22;26461;45.630;9.418;2023-04-09T07:07:03;11.50;95.20
40756;DHT22;26461;45.630;9.418;2023-04-09T07:10:13;11.50;95.10
40756;DHT22;26461;45.630;9.418;2023-04-09T07:13:19;11.50;95.00
40756;DHT22;26461;45.630;9.418;2023-04-09T07:16:27;11.60;95.00
40756;DHT22;26461;45.630;9.418;2023-04-09T07:19:33;11.60;94.90
40756;DHT22;26461;45.630;9.418;2023-04-09T07:22:43;11.70;94.90
40756;DHT22;26461;45.630;9.418;2023-04-09T07:25:48;11.70;94.90
40756;DHT22;26461;45.630;9.418;2023-04-09T07:28:59;11.70;94.80
40756;DHT22;26461;45.630;9.418;2023-04-09T07:32:19;11.80;94.70
40756;DHT22;26461;45.630;9.418;2023-04-09T07:35:45;11.80;94.80
40756;DHT22;26461;45.630;9.418;2023-04-09T07:38:56;11.70;95.00
40756;DHT22;26461;45.630;9.418;2023-04-09T07:42:13;11.80;95.20
40756;DHT22;26461;45.630;9.418;2023-04-09T07:45:19;11.90;95.30
40756;DHT22;26461;45.630;9.418;2023-04-09T07:48:33;11.90;95.60
40756;DHT22;26461;45.630;9.418;2023-04-09T07:51:43;12.00;95.70
40756;DHT22;26461;45.630;9.418;2023-04-09T07:54:54;12.00;95.90
40756;DHT22;26461;45.630;9.418;2023-04-09T07:58:03;12.00;95.70
40756;DHT22;26461;45.630;9.418;2023-04-09T08:01:13;12.10;96.00
40756;DHT22;26461;45.630;9.418;2023-04-09T08:04:18;12.80;96.00
40756;DHT22;26461;45.630;9.418;2023-04-09T08:07:27;12.10;95.70
40756;DHT22;26461;45.630;9.418;2023-04-09T08:10:42;12.10;95.40
40756;DHT22;26461;45.630;9.418;2023-04-09T08:13:57;12.20;95.50
40756;DHT22;26461;45.630;9.418;2023-04-09T08:17:10;12.20;95.40
40756;DHT22;26461;45.630;9.418;2023-04-09T08:20:18;12.20;95.40
40756;DHT22;26461;45.630;9.418;2023-04-09T08:23:32;12.30;95.40
40756;DHT22;26461;45.630;9.418;2023-04-09T08:26:40;12.30;95.60
40756;DHT22;26461;45.630;9.418;2023-04-09T08:30:02;12.40;95.60
40756;DHT22;26461;45.630;9.418;2023-04-09T08:33:14;12.40;95.50
40756;DHT22;26461;45.630;9.418;2023-04-09T08:36:30;12.40;95.50
40756;DHT22;26461;45.630;9.418;2023-04-09T08:39:41;12.50;95.50
40756;DHT22;26461;45.630;9.418;2023-04-09T08:42:56;12.50;95.50
40756;DHT22;26461;45.630;9.418;2023-04-09T08:46:14;12.60;96.00
40756;DHT22;26461;45.630;9.418;2023-04-09T08:49:38;12.60;96.10
40756;DHT22;26461;45.630;9.418;2023-04-09T08:52:54;12.70;96.10
40756;DHT22;26461;45.630;9.418;2023-04-09T08:56:18;12.70;96.20
40756;DHT22;26461;45.630;9.418;2023-04-09T08:59:25;12.80;96.20
40756;DHT22;26461;45.630;9.418;2023-04-09T09:02:31;12.80;96.40
40756;DHT22;26461;45.630;9.418;2023-04-09T09:05:44;12.80;96.30
40756;DHT22;26461;45.630;9.418;2023-04-09T09:09:07;12.80;96.20
40756;DHT22;26461;45.630;9.418;2023-04-09T09:12:37;12.90;96.00
40756;DHT22;26461;45.630;9.418;2023-04-09T09:15:43;12.90;96.10
40756;DHT22;26461;45.630;9.418;2023-04-09T09:18:50;12.90;96.20
40756;DHT22;26461;45.630;9.418;2023-04-09T09:22:04;13.00;96.40
40756;DHT22;26461;45.630;9.418;2023-04-09T09:25:16;13.00;95.90
40756;DHT22;26461;45.630;9.418;2023-04-09T09:28:22;13.00;95.90
40756;DHT22;26461;45.630;9.418;2023-04-09T09:32:02;13.10;96.30
40756;DHT22;26461;45.630;9.418;2023-04-09T09:35:13;13.10;96.40
40756;DHT22;26461;45.630;9.418;2023-04-09T09:38:19;13.20;96.50
40756;DHT22;26461;45.630;9.418;2023-04-09T09:41:30;13.20;96.00
40756;DHT22;26461;45.630;9.418;2023-04-09T09:44:35;13.20;96.20
40756;DHT22;26461;45.630;9.418;2023-04-09T09:47:41;13.20;95.90
40756;DHT22;26461;45.630;9.418;2023-04-09T09:50:47;13.20;95.90
40756;DHT22;26461;45.630;9.418;2023-04-09T09:53:57;13.30;96.40
40756;DHT22;26461;45.630;9.418;2023-04-09T09:57:03;13.30;95.90
40756;DHT22;26461;45.630;9.418;2023-04-09T10:00:16;13.40;96.00
40756;DHT22;26461;45.630;9.418;2023-04-09T10:03:24;13.40;96.00
40756;DHT22;26461;45.630;9.418;2023-04-09T10:06:37;13.50;96.30
40756;DHT22;26461;45.630;9.418;2023-04-09T10:09:48;13.50;95.90
40756;DHT22;26461;45.630;9.418;2023-04-09T10:13:01;13.50;95.60
40756;DHT22;26461;45.630;9.418;2023-04-09T10:16:16;13.60;95.70
40756;DHT22;26461;45.630;9.418;2023-04-09T10:19:36;13.60;95.80
40756;DHT22;26461;45.630;9.418;2023-04-09T10:22:50;13.70;95.70
40756;DHT22;26461;45.630;9.418;2023-04-09T10:25:56;13.70;95.70
40756;DHT22;26461;45.630;9.418;2023-04-09T10:29:12;13.80;95.00
40756;DHT22;26461;45.630;9.418;2023-04-09T10:32:24;13.80;94.90
40756;DHT22;26461;45.630;9.418;2023-04-09T10:35:32;13.90;94.00
40756;DHT22;26461;45.630;9.418;2023-04-09T10:38:45;13.90;93.90
40756;DHT22;26461;45.630;9.418;2023-04-09T10:41:53;13.90;93.50
40756;DHT22;26461;45.630;9.418;2023-04-09T10:45:13;13.90;93.60
40756;DHT22;26461;45.630;9.418;2023-04-09T10:48:32;14.00;94.00
40756;DHT22;26461;45.630;9.418;2023-04-09T10:51:39;14.10;94.10
40756;DHT22;26461;45.630;9.418;2023-04-09T10:54:45;14.20;93.60
40756;DHT22;26461;45.630;9.418;2023-04-09T10:57:52;14.20;93.20
40756;DHT22;26461;45.630;9.418;2023-04-09T11:01:02;14.30;92.60
40756;DHT22;26461;45.630;9.418;2023-04-09T11:04:15;14.30;92.20
40756;DHT22;26461;45.630;9.418;2023-04-09T11:07:26;14.30;92.40
40756;DHT22;26461;45.630;9.418;2023-04-09T11:10:42;14.30;91.90
40756;DHT22;26461;45.630;9.418;2023-04-09T11:13:48;14.40;91.90
40756;DHT22;26461;45.630;9.418;2023-04-09T11:16:54;14.40;92.30
40756;DHT22;26461;45.630;9.418;2023-04-09T11:20:03;14.40;92.30
40756;DHT22;26461;45.630;9.418;2023-04-09T11:23:09;14.40;91.90
40756;DHT22;26461;45.630;9.418;2023-04-09T11:26:34;14.50;92.60
40756;DHT22;26461;45.630;9.418;2023-04-09T11:29:40;14.60;92.20
40756;DHT22;26461;45.630;9.418;2023-04-09T11:32:47;14.60;92.00
40756;DHT22;26461;45.630;9.418;2023-04-09T11:35:56;14.70;91.70
40756;DHT22;26461;45.630;9.418;2023-04-09T11:39:07;14.70;91.60
40756;DHT22;26461;45.630;9.418;2023-04-09T11:42:18;14.60;91.30
40756;DHT22;26461;45.630;9.418;2023-04-09T11:45:32;14.70;91.40
40756;DHT22;26461;45.630;9.418;2023-04-09T11:48:37;14.60;90.90
40756;DHT22;26461;45.630;9.418;2023-04-09T11:51:48;14.70;90.90
40756;DHT22;26461;45.630;9.418;2023-04-09T11:55:05;14.70;90.90
40756;DHT22;26461;45.630;9.418;2023-04-09T11:58:11;14.70;90.80
40756;DHT22;26461;45.630;9.418;2023-04-09T12:01:22;14.70;90.60
40756;DHT22;26461;45.630;9.418;2023-04-09T12:04:34;14.70;90.50
40756;DHT22;26461;45.630;9.418;2023-04-09T12:07:44;14.70;90.30
40756;DHT22;26461;45.630;9.418;2023-04-09T12:10:50;14.70;90.30
40756;DHT22;26461;45.630;9.418;2023-04-09T12:14:05;14.80;90.00
40756;DHT22;26461;45.630;9.418;2023-04-09T12:17:11;14.80;89.70
40756;DHT22;26461;45.630;9.418;2023-04-09T12:23:34;14.90;89.30
40756;DHT22;26461;45.630;9.418;2023-04-09T12:26:46;15.00;89.30
40756;DHT22;26461;45.630;9.418;2023-04-09T12:29:52;15.10;89.10
40756;DHT22;26461;45.630;9.418;2023-04-09T12:32:58;15.20;88.70
40756;DHT22;26461;45.630;9.418;2023-04-09T12:36:11;15.30;88.50
40756;DHT22;26461;45.630;9.418;2023-04-09T12:39:17;15.30;87.70
40756;DHT22;26461;45.630;9.418;2023-04-09T12:42:26;15.40;87.80
40756;DHT22;26461;45.630;9.418;2023-04-09T12:45:31;15.50;87.50
40756;DHT22;26461;45.630;9.418;2023-04-09T12:48:37;15.50;86.60
40756;DHT22;26461;45.630;9.418;2023-04-09T12:51:43;15.60;86.40
40756;DHT22;26461;45.630;9.418;2023-04-09T12:54:50;15.60;86.50
40756;DHT22;26461;45.630;9.418;2023-04-09T12:57:57;15.70;84.20
40756;DHT22;26461;45.630;9.418;2023-04-09T13:01:06;15.70;84.10
40756;DHT22;26461;45.630;9.418;2023-04-09T13:04:12;15.70;84.20
40756;DHT22;26461;45.630;9.418;2023-04-09T13:07:17;15.80;83.70
40756;DHT22;26461;45.630;9.418;2023-04-09T13:10:24;15.80;83.00
40756;DHT22;26461;45.630;9.418;2023-04-09T13:13:32;15.90;85.10
40756;DHT22;26461;45.630;9.418;2023-04-09T13:16:40;16.00;84.40
40756;DHT22;26461;45.630;9.418;2023-04-09T13:19:47;16.10;85.60
40756;DHT22;26461;45.630;9.418;2023-04-09T13:22:55;16.30;84.60
40756;DHT22;26461;45.630;9.418;2023-04-09T13:26:08;16.40;83.90
40756;DHT22;26461;45.630;9.418;2023-04-09T13:29:16;16.50;82.50
40756;DHT22;26461;45.630;9.418;2023-04-09T13:32:26;16.60;80.90
40756;DHT22;26461;45.630;9.418;2023-04-09T13:35:31;16.60;80.60
40756;DHT22;26461;45.630;9.418;2023-04-09T13:38:40;16.60;80.00
40756;DHT22;26461;45.630;9.418;2023-04-09T13:41:52;16.70;78.60
40756;DHT22;26461;45.630;9.418;2023-04-09T13:45:06;16.80;78.70
40756;DHT22;26461;45.630;9.418;2023-04-09T13:48:33;16.90;78.80
40756;DHT22;26461;45.630;9.418;2023-04-09T13:51:51;17.00;79.80
40756;DHT22;26461;45.630;9.418;2023-04-09T13:54:58;17.10;76.80
40756;DHT22;26461;45.630;9.418;2023-04-09T13:58:05;17.20;76.70
40756;DHT22;26461;45.630;9.418;2023-04-09T14:01:15;17.30;76.80
40756;DHT22;26461;45.630;9.418;2023-04-09T14:04:25;17.50;76.00
40756;DHT22;26461;45.630;9.418;2023-04-09T14:07:32;17.60;74.80
40756;DHT22;26461;45.630;9.418;2023-04-09T14:10:37;17.70;75.10
40756;DHT22;26461;45.630;9.418;2023-04-09T14:13:48;17.80;74.30
40756;DHT22;26461;45.630;9.418;2023-04-09T14:16:53;17.90;74.30
40756;DHT22;26461;45.630;9.418;2023-04-09T14:19:59;17.90;75.30
40756;DHT22;26461;45.630;9.418;2023-04-09T14:23:08;18.00;72.90
40756;DHT22;26461;45.630;9.418;2023-04-09T14:26:16;18.10;72.80
40756;DHT22;26461;45.630;9.418;2023-04-09T14:29:22;18.20;73.20
40756;DHT22;26461;45.630;9.418;2023-04-09T14:32:27;18.20;73.60
40756;DHT22;26461;45.630;9.418;2023-04-09T14:35:35;18.30;73.30
40756;DHT22;26461;45.630;9.418;2023-04-09T14:38:41;18.40;73.20
40756;DHT22;26461;45.630;9.418;2023-04-09T14:41:51;18.50;72.90
40756;DHT22;26461;45.630;9.418;2023-04-09T14:44:59;18.60;72.20
40756;DHT22;26461;45.630;9.418;2023-04-09T14:48:10;18.70;71.50
40756;DHT22;26461;45.630;9.418;2023-04-09T14:51:19;18.80;71.30
40756;DHT22;26461;45.630;9.418;2023-04-09T14:54:35;18.90;69.80
40756;DHT22;26461;45.630;9.418;2023-04-09T14:57:46;19.00;68.90
40756;DHT22;26461;45.630;9.418;2023-04-09T15:00:52;18.90;69.40
40756;DHT22;26461;45.630;9.418;2023-04-09T15:03:58;18.90;69.50
40756;DHT22;26461;45.630;9.418;2023-04-09T15:07:06;19.00;69.80
40756;DHT22;26461;45.630;9.418;2023-04-09T15:10:12;19.20;68.60
40756;DHT22;26461;45.630;9.418;2023-04-09T15:13:24;19.20;67.40
40756;DHT22;26461;45.630;9.418;2023-04-09T15:16:31;19.40;66.60
40756;DHT22;26461;45.630;9.418;2023-04-09T15:19:43;19.50;66.20
40756;DHT22;26461;45.630;9.418;2023-04-09T15:22:49;19.50;66.50
40756;DHT22;26461;45.630;9.418;2023-04-09T15:26:00;19.60;66.50
40756;DHT22;26461;45.630;9.418;2023-04-09T15:29:11;19.60;66.70
40756;DHT22;26461;45.630;9.418;2023-04-09T15:32:16;19.60;65.50
40756;DHT22;26461;45.630;9.418;2023-04-09T15:35:22;19.60;65.40
40756;DHT22;26461;45.630;9.418;2023-04-09T15:38:33;19.60;66.00
40756;DHT22;26461;45.630;9.418;2023-04-09T15:41:38;19.60;64.40
40756;DHT22;26461;45.630;9.418;2023-04-09T15:44:50;19.60;64.90
40756;DHT22;26461;45.630;9.418;2023-04-09T15:47:56;19.50;65.40
40756;DHT22;26461;45.630;9.418;2023-04-09T15:51:06;19.30;65.30
40756;DHT22;26461;45.630;9.418;2023-04-09T15:54:20;19.20;64.30
40756;DHT22;26461;45.630;9.418;2023-04-09T15:57:26;19.30;63.50
40756;DHT22;26461;45.630;9.418;2023-04-09T16:00:36;19.40;64.30
40756;DHT22;26461;45.630;9.418;2023-04-09T16:03:42;19.50;63.40
40756;DHT22;26461;45.630;9.418;2023-04-09T16:06:52;19.60;64.60
40756;DHT22;26461;45.630;9.418;2023-04-09T16:10:04;19.70;64.30
40756;DHT22;26461;45.630;9.418;2023-04-09T16:13:10;19.90;61.80
40756;DHT22;26461;45.630;9.418;2023-04-09T16:16:16;20.00;62.10
40756;DHT22;26461;45.630;9.418;2023-04-09T16:19:29;20.00;61.20
40756;DHT22;26461;45.630;9.418;2023-04-09T16:22:40;20.00;61.80
40756;DHT22;26461;45.630;9.418;2023-04-09T16:25:52;20.00;60.90
40756;DHT22;26461;45.630;9.418;2023-04-09T16:28:57;20.10;60.90
40756;DHT22;26461;45.630;9.418;2023-04-09T16:32:15;20.10;62.50
40756;DHT22;26461;45.630;9.418;2023-04-09T16:35:25;20.10;61.90
40756;DHT22;26461;45.630;9.418;2023-04-09T16:38:31;20.20;60.80
40756;DHT22;26461;45.630;9.418;2023-04-09T16:41:37;20.20;60.40
40756;DHT22;26461;45.630;9.418;2023-04-09T16:44:49;20.20;61.40
40756;DHT22;26461;45.630;9.418;2023-04-09T16:47:55;20.20;60.40
40756;DHT22;26461;45.630;9.418;2023-04-09T16:51:06;20.10;60.60
40756;DHT22;26461;45.630;9.418;2023-04-09T16:54:12;20.10;61.00
40756;DHT22;26461;45.630;9.418;2023-04-09T16:57:23;20.10;61.20
40756;DHT22;26461;45.630;9.418;2023-04-09T17:00:29;20.10;61.00
40756;DHT22;26461;45.630;9.418;2023-04-09T17:03:35;20.10;61.30
40756;DHT22;26461;45.630;9.418;2023-04-09T17:06:41;20.10;61.00
40756;DHT22;26461;45.630;9.418;2023-04-09T17:09:47;20.10;60.80
40756;DHT22;26461;45.630;9.418;2023-04-09T17:12:54;19.90;60.60
40756;DHT22;26461;45.630;9.418;2023-04-09T17:16:05;19.80;60.90
40756;DHT22;26461;45.630;9.418;2023-04-09T17:19:16;19.70;60.80
40756;DHT22;26461;45.630;9.418;2023-04-09T17:22:31;19.60;61.00
40756;DHT22;26461;45.630;9.418;2023-04-09T17:26:09;19.40;61.20
40756;DHT22;26461;45.630;9.418;2023-04-09T17:29:20;19.30;62.20
40756;DHT22;26461;45.630;9.418;2023-04-09T17:32:34;19.30;63.40
40756;DHT22;26461;45.630;9.418;2023-04-09T17:35:56;19.20;63.10
40756;DHT22;26461;45.630;9.418;2023-04-09T17:39:12;19.20;62.50
40756;DHT22;26461;45.630;9.418;2023-04-09T17:42:21;19.10;62.20
40756;DHT22;26461;45.630;9.418;2023-04-09T17:45:36;19.00;62.40
40756;DHT22;26461;45.630;9.418;2023-04-09T17:48:50;18.80;62.20
40756;DHT22;26461;45.630;9.418;2023-04-09T17:51:57;18.70;61.90
40756;DHT22;26461;45.630;9.418;2023-04-09T17:55:07;18.50;62.30
40756;DHT22;26461;45.630;9.418;2023-04-09T17:58:16;18.40;63.10
40756;DHT22;26461;45.630;9.418;2023-04-09T18:01:26;18.20;63.20
40756;DHT22;26461;45.630;9.418;2023-04-09T18:04:32;18.10;63.30
40756;DHT22;26461;45.630;9.418;2023-04-09T18:07:39;18.00;63.60
40756;DHT22;26461;45.630;9.418;2023-04-09T18:10:45;17.90;63.70
40756;DHT22;26461;45.630;9.418;2023-04-09T18:13:57;17.80;64.00
40756;DHT22;26461;45.630;9.418;2023-04-09T18:17:05;17.70;64.40
40756;DHT22;26461;45.630;9.418;2023-04-09T18:20:16;17.60;64.80
40756;DHT22;26461;45.630;9.418;2023-04-09T18:23:28;17.50;65.40
40756;DHT22;26461;45.630;9.418;2023-04-09T18:26:35;17.40;66.00
40756;DHT22;26461;45.630;9.418;2023-04-09T18:29:41;17.30;67.60
40756;DHT22;26461;45.630;9.418;2023-04-09T18:32:53;17.20;67.30
40756;DHT22;26461;45.630;9.418;2023-04-09T18:36:00;17.20;67.90
40756;DHT22;26461;45.630;9.418;2023-04-09T18:39:06;17.00;68.20
40756;DHT22;26461;45.630;9.418;2023-04-09T18:42:13;17.00;68.70
40756;DHT22;26461;45.630;9.418;2023-04-09T18:45:19;16.90;69.00
40756;DHT22;26461;45.630;9.418;2023-04-09T18:48:25;16.80;69.60
40756;DHT22;26461;45.630;9.418;2023-04-09T18:51:30;16.80;69.90
40756;DHT22;26461;45.630;9.418;2023-04-09T18:54:36;16.70;70.30
40756;DHT22;26461;45.630;9.418;2023-04-09T18:57:47;16.60;71.20
40756;DHT22;26461;45.630;9.418;2023-04-09T19:00:53;16.50;71.50
40756;DHT22;26461;45.630;9.418;2023-04-09T19:04:03;16.40;72.40
40756;DHT22;26461;45.630;9.418;2023-04-09T19:07:10;16.30;72.20
40756;DHT22;26461;45.630;9.418;2023-04-09T19:10:15;16.30;71.80
40756;DHT22;26461;45.630;9.418;2023-04-09T19:13:21;16.20;72.30
40756;DHT22;26461;45.630;9.418;2023-04-09T19:16:27;16.10;72.70
40756;DHT22;26461;45.630;9.418;2023-04-09T19:19:38;16.00;72.70
40756;DHT22;26461;45.630;9.418;2023-04-09T19:22:51;15.90;72.80
40756;DHT22;26461;45.630;9.418;2023-04-09T19:26:01;15.90;73.50
40756;DHT22;26461;45.630;9.418;2023-04-09T19:29:07;15.80;73.40
40756;DHT22;26461;45.630;9.418;2023-04-09T19:32:12;15.80;73.50
40756;DHT22;26461;45.630;9.418;2023-04-09T19:35:18;15.70;73.90
40756;DHT22;26461;45.630;9.418;2023-04-09T19:38:28;15.70;74.20
40756;DHT22;26461;45.630;9.418;2023-04-09T19:41:34;15.60;74.50
40756;DHT22;26461;45.630;9.418;2023-04-09T19:44:46;15.60;74.50
40756;DHT22;26461;45.630;9.418;2023-04-09T19:48:00;15.50;74.70
40756;DHT22;26461;45.630;9.418;2023-04-09T19:51:20;15.50;74.90
40756;DHT22;26461;45.630;9.418;2023-04-09T19:54:25;15.40;75.10
40756;DHT22;26461;45.630;9.418;2023-04-09T19:57:31;15.40;75.50
40756;DHT22;26461;45.630;9.418;2023-04-09T20:00:37;15.40;75.50
40756;DHT22;26461;45.630;9.418;2023-04-09T20:03:43;15.30;75.40
40756;DHT22;26461;45.630;9.418;2023-04-09T20:06:49;15.30;75.40